createdAt,value
2018-09-02T00:02:23.602Z,22.97
2018-09-02T00:04:49.552Z,23.06
2018-09-02T00:07:15.508Z,22.82
2018-09-02T00:09:41.454Z,23.10
2018-09-02T00:12:07.422Z,22.84
2018-09-02T00:14:33.381Z,23.02
2018-09-02T00:16:59.337Z,22.85
2018-09-02T00:19:25.286Z,23.05
2018-09-02T00:21:51.236Z,22.55
2018-09-02T00:24:17.189Z,22.61
2018-09-02T00:26:43.152Z,23.07
2018-09-02T00:29:09.111Z,22.69
2018-09-02T00:31:35.078Z,22.91
2018-09-02T00:34:01.136Z,22.52
2018-09-02T00:36:29.768Z,23.07
2018-09-02T00:38:55.919Z,23.04
2018-09-02T00:41:21.876Z,22.96
2018-09-02T00:43:47.823Z,23.03
2018-09-02T00:46:13.771Z,23.14
2018-09-02T00:48:39.785Z,22.85
2018-09-02T00:51:05.769Z,22.86
2018-09-02T00:53:31.707Z,22.72
2018-09-02T00:55:57.672Z,22.58
2018-09-02T00:58:23.628Z,22.60
2018-09-02T01:00:49.584Z,22.66
2018-09-02T01:03:15.543Z,22.62
2018-09-02T01:05:41.493Z,22.54
2018-09-02T01:08:07.420Z,22.82
2018-09-02T01:10:33.358Z,22.53
2018-09-02T01:12:59.308Z,22.50
2018-09-02T01:15:25.526Z,22.77
2018-09-02T01:17:51.542Z,22.93
2018-09-02T01:20:17.499Z,22.80
2018-09-02T01:22:43.453Z,22.88
2018-09-02T01:25:09.426Z,22.55
2018-09-02T01:27:35.396Z,22.67
2018-09-02T01:30:01.328Z,22.87
2018-09-02T01:32:27.271Z,22.67
2018-09-02T01:34:53.213Z,22.72
2018-09-02T01:37:19.169Z,22.72
2018-09-02T01:39:45.120Z,22.30
2018-09-02T01:42:11.380Z,22.93
2018-09-02T01:44:37.307Z,23.05
2018-09-02T01:47:03.272Z,22.75
2018-09-02T01:49:29.240Z,22.50
2018-09-02T01:51:55.191Z,22.88
2018-09-02T01:54:21.152Z,22.66
2018-09-02T01:56:47.092Z,22.94
2018-09-02T01:59:13.056Z,22.59
2018-09-02T02:01:39.060Z,22.56
2018-09-02T02:04:05.029Z,22.70
2018-09-02T02:06:31.006Z,22.80
2018-09-02T02:08:56.984Z,23.09
2018-09-02T02:11:23.180Z,23.11
2018-09-02T02:13:49.116Z,22.80
2018-09-02T02:16:15.068Z,22.94
2018-09-02T02:18:41.013Z,22.78
2018-09-02T02:21:06.949Z,22.73
2018-09-02T02:23:32.936Z,22.93
2018-09-02T02:25:58.893Z,22.86
2018-09-02T02:28:24.865Z,22.75
2018-09-02T02:30:50.832Z,22.94
2018-09-02T02:33:16.819Z,22.80
2018-09-02T02:35:42.821Z,22.77
2018-09-02T02:38:08.812Z,22.86
2018-09-02T02:40:34.762Z,22.79
2018-09-02T02:43:00.702Z,22.67
2018-09-02T02:45:26.688Z,22.74
2018-09-02T02:47:52.629Z,22.80
2018-09-02T02:50:18.611Z,22.64
2018-09-02T02:52:44.601Z,22.32
2018-09-02T02:55:11.480Z,22.61
2018-09-02T02:57:37.430Z,22.46
2018-09-02T03:00:03.398Z,22.40
2018-09-02T03:02:29.354Z,22.54
2018-09-02T03:04:55.305Z,22.46
2018-09-02T03:07:21.243Z,22.62
2018-09-02T03:09:47.224Z,22.92
2018-09-02T03:12:13.186Z,22.85
2018-09-02T03:14:39.208Z,22.68
2018-09-02T03:17:05.173Z,22.48
2018-09-02T03:19:31.436Z,22.72
2018-09-02T03:21:57.383Z,22.57
2018-09-02T03:24:23.341Z,22.57
2018-09-02T03:26:49.323Z,22.74
2018-09-02T03:29:15.248Z,22.63
2018-09-02T03:31:41.186Z,22.28
2018-09-02T03:34:07.140Z,22.70
2018-09-02T03:36:33.475Z,22.96
2018-09-02T03:38:59.449Z,22.66
2018-09-02T03:41:25.376Z,22.90
2018-09-02T03:43:51.308Z,22.37
2018-09-02T03:46:17.256Z,22.66
2018-09-02T03:48:43.236Z,22.54
2018-09-02T03:51:09.203Z,22.80
2018-09-02T03:53:35.561Z,22.67
2018-09-02T03:56:01.529Z,22.73
2018-09-02T03:58:27.452Z,22.33
2018-09-02T04:00:53.392Z,22.84
2018-09-02T04:03:19.328Z,22.62
2018-09-02T04:05:45.292Z,22.61
2018-09-02T04:08:11.253Z,22.77
2018-09-02T04:10:37.264Z,22.78
2018-09-02T04:13:03.232Z,22.72
2018-09-02T04:15:29.237Z,22.56
2018-09-02T04:17:55.202Z,22.93
2018-09-02T04:20:21.201Z,23.02
2018-09-02T04:22:48.475Z,22.89
2018-09-02T04:25:14.431Z,22.60
2018-09-02T04:27:40.411Z,22.73
2018-09-02T04:30:06.397Z,22.62
2018-09-02T04:32:32.402Z,22.55
2018-09-02T04:34:58.351Z,22.32
2018-09-02T04:37:24.304Z,22.36
2018-09-02T04:39:50.287Z,22.44
2018-09-02T04:42:16.235Z,22.39
2018-09-02T04:44:42.189Z,22.58
2018-09-02T04:47:08.129Z,22.55
2018-09-02T04:49:34.081Z,22.44
2018-09-02T04:52:00.022Z,22.83
2018-09-02T04:54:26.075Z,22.80
2018-09-02T04:56:51.945Z,22.86
2018-09-02T04:59:17.924Z,22.97
2018-09-02T05:01:43.913Z,23.04
2018-09-02T05:04:09.862Z,22.72
2018-09-02T05:06:35.825Z,23.02
2018-09-02T05:09:01.755Z,22.96
2018-09-02T05:11:27.707Z,23.08
2018-09-02T05:13:53.688Z,23.07
2018-09-02T05:18:54.189Z,23.00
2018-09-02T05:21:20.129Z,22.95
2018-09-02T05:23:46.097Z,23.06
2018-09-02T05:26:12.076Z,22.65
2018-09-02T05:28:38.054Z,22.92
2018-09-02T05:31:04.018Z,22.90
2018-09-02T05:33:30.010Z,22.93
2018-09-02T05:35:55.978Z,23.04
2018-09-02T05:38:21.941Z,23.01
2018-09-02T05:40:47.865Z,22.73
2018-09-02T05:43:13.802Z,22.70
2018-09-02T05:45:39.770Z,22.65
2018-09-02T05:48:05.728Z,22.86
2018-09-02T05:50:31.727Z,22.39
2018-09-02T05:52:57.678Z,22.71
2018-09-02T05:55:23.617Z,22.32
2018-09-02T05:57:49.596Z,22.81
2018-09-02T06:00:15.565Z,22.90
2018-09-02T06:02:41.568Z,22.69
2018-09-02T06:05:07.465Z,23.11
2018-09-02T06:07:33.417Z,23.00
2018-09-02T06:09:59.347Z,22.85
2018-09-02T06:12:25.321Z,23.05
2018-09-02T06:14:51.257Z,22.83
2018-09-02T06:17:17.579Z,22.87
2018-09-02T06:19:43.516Z,23.07
2018-09-02T06:22:09.473Z,22.84
2018-09-02T06:24:35.441Z,22.94
2018-09-02T06:27:01.400Z,22.66
2018-09-02T06:29:27.387Z,22.86
2018-09-02T06:31:53.321Z,22.68
2018-09-02T06:34:19.270Z,22.94
2018-09-02T06:36:45.202Z,22.80
2018-09-02T06:39:11.163Z,22.91
2018-09-02T06:41:37.127Z,22.41
2018-09-02T06:44:03.101Z,22.74
2018-09-02T06:46:29.040Z,23.01
2018-09-02T06:48:55.308Z,22.89
2018-09-02T06:51:21.286Z,22.74
2018-09-02T06:53:47.247Z,22.70
2018-09-02T06:56:13.205Z,22.77
2018-09-02T06:58:39.237Z,23.11
2018-09-02T07:01:05.167Z,23.25
2018-09-02T07:03:31.148Z,23.14
2018-09-02T07:05:57.101Z,23.10
2018-09-02T07:08:23.065Z,22.71
2018-09-02T07:10:49.012Z,22.92
2018-09-02T07:13:14.960Z,22.42
2018-09-02T07:15:40.910Z,22.77
2018-09-02T07:18:06.879Z,22.46
2018-09-02T07:20:32.868Z,22.67
2018-09-02T07:22:58.844Z,22.51
2018-09-02T07:25:24.816Z,22.54
2018-09-02T07:27:50.761Z,22.98
2018-09-02T07:30:16.733Z,23.06
2018-09-02T07:32:42.678Z,23.06
2018-09-02T07:35:08.617Z,23.15
2018-09-02T07:37:34.578Z,23.14
2018-09-02T07:40:00.583Z,22.74
2018-09-02T07:42:29.406Z,22.95
2018-09-02T07:44:59.449Z,23.11
2018-09-02T07:47:25.452Z,23.34
2018-09-02T07:49:51.509Z,23.11
2018-09-02T07:52:18.468Z,23.14
2018-09-02T07:54:44.471Z,23.16
2018-09-02T07:57:10.405Z,23.24
2018-09-02T07:59:36.387Z,23.06
2018-09-02T08:02:02.329Z,23.04
2018-09-02T08:04:28.327Z,22.54
2018-09-02T08:09:29.477Z,22.92
2018-09-02T08:11:57.611Z,23.20
2018-09-02T08:14:23.659Z,23.08
2018-09-02T08:16:51.639Z,23.11
2018-09-02T08:19:17.610Z,23.17
2018-09-02T08:24:15.574Z,22.92
2018-09-02T08:26:41.569Z,22.86
2018-09-02T08:29:07.516Z,23.15
2018-09-02T08:31:33.529Z,23.17
2018-09-02T08:33:59.508Z,23.09
2018-09-02T08:36:25.518Z,23.06
2018-09-02T08:38:51.548Z,23.06
2018-09-02T08:41:17.464Z,23.36
2018-09-02T08:43:43.471Z,23.26
2018-09-02T08:46:09.440Z,23.22
2018-09-02T08:48:35.416Z,23.15
2018-09-02T08:51:01.430Z,23.02
2018-09-02T08:58:30.664Z,22.86
2018-09-02T09:00:56.623Z,23.31
2018-09-02T09:03:22.597Z,23.30
2018-09-02T09:05:48.532Z,23.31
2018-09-02T09:08:14.714Z,23.12
2018-09-02T09:10:40.480Z,23.29
2018-09-02T09:13:07.449Z,23.40
2018-09-02T09:15:33.391Z,23.52
2018-09-02T09:17:59.346Z,23.34
2018-09-02T09:20:25.300Z,23.34
2018-09-02T09:22:51.250Z,23.06
2018-09-02T09:25:17.285Z,23.48
2018-09-02T09:27:43.404Z,23.60
2018-09-02T09:30:09.369Z,23.11
2018-09-02T09:32:35.341Z,23.29
2018-09-02T09:35:01.300Z,23.32
2018-09-02T09:37:27.344Z,23.35
2018-09-02T09:39:53.309Z,23.34
2018-09-02T09:42:19.329Z,23.13
2018-09-02T09:44:45.280Z,23.16
2018-09-02T09:47:11.265Z,23.16
2018-09-02T09:49:37.236Z,23.18
2018-09-02T09:52:03.260Z,23.22
2018-09-02T09:54:29.194Z,23.43
2018-09-02T09:56:55.244Z,23.41
2018-09-02T09:59:21.234Z,23.44
2018-09-02T10:01:47.253Z,23.59
2018-09-02T10:04:13.205Z,23.44
2018-09-02T10:06:39.193Z,23.33
2018-09-02T10:09:05.158Z,23.44
2018-09-02T10:11:31.157Z,23.28
2018-09-02T10:13:57.259Z,23.30
2018-09-02T10:16:23.202Z,23.63
2018-09-02T10:18:49.195Z,23.19
2018-09-02T10:21:15.196Z,23.60
2018-09-02T10:23:41.482Z,23.22
2018-09-02T10:26:07.442Z,23.30
2018-09-02T10:28:36.596Z,23.36
2018-09-02T10:31:02.554Z,23.50
2018-09-02T10:33:28.619Z,23.32
2018-09-02T10:35:54.489Z,23.76
2018-09-02T10:38:20.521Z,23.93
2018-09-02T10:40:51.674Z,23.56
2018-09-02T10:43:18.199Z,23.63
2018-09-02T10:45:44.376Z,23.43
2018-09-02T10:48:10.490Z,23.32
2018-09-02T10:53:11.602Z,23.50
2018-09-02T10:55:38.784Z,23.61
2018-09-02T11:00:39.765Z,23.67
2018-09-02T11:03:05.903Z,23.50
2018-09-02T11:05:31.925Z,23.58
2018-09-02T11:13:01.717Z,24.01
2018-09-02T11:15:27.722Z,23.79
2018-09-02T11:17:53.819Z,24.21
2018-09-02T11:20:19.858Z,24.19
2018-09-02T11:22:45.824Z,24.30
2018-09-02T11:25:11.847Z,24.25
2018-09-02T11:27:37.847Z,24.38
2018-09-02T11:30:03.858Z,23.78
2018-09-02T11:32:29.913Z,23.96
2018-09-02T11:34:55.981Z,24.10
2018-09-02T11:37:21.993Z,24.29
2018-09-02T11:39:47.952Z,24.31
2018-09-02T11:42:13.953Z,24.06
2018-09-02T11:44:40.037Z,24.03
2018-09-02T11:47:06.229Z,23.99
2018-09-02T11:49:32.226Z,24.00
2018-09-02T11:51:58.249Z,24.07
2018-09-02T11:54:24.288Z,24.09
2018-09-02T11:56:50.306Z,23.99
2018-09-02T11:59:16.630Z,23.77
2018-09-02T12:01:42.682Z,24.22
2018-09-02T12:04:08.694Z,24.37
2018-09-02T12:06:34.702Z,24.30
2018-09-02T12:09:00.679Z,24.19
2018-09-02T12:11:26.680Z,24.11
2018-09-02T12:13:52.655Z,24.13
2018-09-02T12:16:18.790Z,24.22
2018-09-02T12:18:44.871Z,24.22
2018-09-02T12:21:11.159Z,24.09
2018-09-02T12:23:37.148Z,24.00
2018-09-02T12:26:03.162Z,24.15
2018-09-02T12:28:29.278Z,24.20
2018-09-02T12:30:55.289Z,24.24
2018-09-02T12:33:21.295Z,24.29
2018-09-02T12:35:47.325Z,24.21
2018-09-02T12:38:13.376Z,24.15
2018-09-02T12:40:39.462Z,24.19
2018-09-02T12:43:05.664Z,24.25
2018-09-02T12:45:31.969Z,24.24
2018-09-02T12:47:58.097Z,24.10
2018-09-02T12:50:24.047Z,24.19
2018-09-02T12:52:50.361Z,24.06
2018-09-02T12:55:16.382Z,24.07
2018-09-02T12:57:42.339Z,23.90
2018-09-02T13:00:08.339Z,23.94
2018-09-02T13:02:34.328Z,23.84
2018-09-02T13:05:00.319Z,23.94
2018-09-02T13:07:26.293Z,23.83
2018-09-02T13:09:52.249Z,23.99
2018-09-02T13:12:18.212Z,24.29
2018-09-02T13:14:44.235Z,24.05
2018-09-02T13:17:10.251Z,23.95
2018-09-02T13:19:36.283Z,23.86
2018-09-02T13:22:02.302Z,23.98
2018-09-02T13:24:28.337Z,24.07
2018-09-02T13:26:54.332Z,23.87
2018-09-02T13:29:20.356Z,23.94
2018-09-02T13:31:46.413Z,24.21
2018-09-02T13:34:14.549Z,24.16
2018-09-02T13:36:40.549Z,24.18
2018-09-02T13:39:06.583Z,23.90
2018-09-02T13:44:09.137Z,24.12
2018-09-02T13:46:35.127Z,23.89
2018-09-02T13:49:01.089Z,23.94
2018-09-02T13:51:27.092Z,23.48
2018-09-02T13:53:53.024Z,24.01
2018-09-02T13:56:19.001Z,24.10
2018-09-02T13:58:44.933Z,24.04
2018-09-02T14:01:10.987Z,24.19
2018-09-02T14:03:36.926Z,24.36
2018-09-02T14:06:02.940Z,24.31
2018-09-02T14:08:28.917Z,24.16
2018-09-02T14:13:27.696Z,24.26
2018-09-02T14:15:53.704Z,24.61
2018-09-02T14:18:19.699Z,24.61
2018-09-02T14:20:49.122Z,24.58
2018-09-02T14:23:15.094Z,24.58
2018-09-02T14:25:41.162Z,24.70
2018-09-02T14:28:07.147Z,24.65
2018-09-02T14:30:33.117Z,24.79
2018-09-02T14:32:59.239Z,24.65
2018-09-02T14:35:25.248Z,24.73
2018-09-02T14:37:51.230Z,24.81
2018-09-02T14:40:17.278Z,24.64
2018-09-02T14:42:43.287Z,24.59
2018-09-02T14:45:09.359Z,24.35
2018-09-02T14:47:35.314Z,24.70
2018-09-02T14:50:01.277Z,24.48
2018-09-02T14:52:27.286Z,24.61
2018-09-02T14:54:53.325Z,24.43
2018-09-02T14:57:19.396Z,24.69
2018-09-02T14:59:45.477Z,24.71
2018-09-02T15:02:11.501Z,24.61
2018-09-02T15:04:38.584Z,24.66
2018-09-02T15:07:04.565Z,24.56
2018-09-02T15:09:30.593Z,24.77
2018-09-02T15:11:56.668Z,24.58
2018-09-02T15:14:23.039Z,24.46
2018-09-02T15:16:49.862Z,24.41
2018-09-02T15:19:15.873Z,24.39
2018-09-02T15:21:41.810Z,24.43
2018-09-02T15:24:07.811Z,24.42
2018-09-02T15:26:33.769Z,24.79
2018-09-02T15:28:59.766Z,24.56
2018-09-02T15:31:25.744Z,24.71
2018-09-02T15:33:51.728Z,24.84
2018-09-02T15:36:17.668Z,24.81
2018-09-02T15:38:43.607Z,24.89
2018-09-02T15:41:09.576Z,24.90
2018-09-02T15:43:35.524Z,24.85
2018-09-02T15:46:01.451Z,24.89
2018-09-02T15:48:27.426Z,24.87
2018-09-02T15:50:53.369Z,24.83
2018-09-02T15:53:19.327Z,24.91
2018-09-02T15:55:45.295Z,24.93
2018-09-02T15:58:11.337Z,24.99
2018-09-02T16:00:37.324Z,24.86
2018-09-02T16:03:03.277Z,24.90
2018-09-02T16:05:29.226Z,24.88
2018-09-02T16:07:55.166Z,24.89
2018-09-02T16:10:21.155Z,24.99
2018-09-02T16:12:47.224Z,24.98
2018-09-02T16:15:13.292Z,24.86
2018-09-02T16:17:39.246Z,25.04
2018-09-02T16:20:05.224Z,25.02
2018-09-02T16:22:31.249Z,24.97
2018-09-02T16:24:57.253Z,24.93
2018-09-02T16:27:24.192Z,24.67
2018-09-02T16:29:50.156Z,24.94
2018-09-02T16:32:16.134Z,24.95
2018-09-02T16:34:42.093Z,24.95
2018-09-02T16:37:08.050Z,24.88
2018-09-02T16:39:34.070Z,24.88
2018-09-02T16:42:00.057Z,24.63
2018-09-02T16:44:26.176Z,24.62
2018-09-02T16:46:52.301Z,24.70
2018-09-02T16:49:18.254Z,24.89
2018-09-02T16:51:44.234Z,24.87
2018-09-02T16:54:10.285Z,24.85
2018-09-02T16:56:36.340Z,24.83
2018-09-02T16:59:02.331Z,24.63
2018-09-02T17:01:28.303Z,23.55
2018-09-02T17:03:54.297Z,24.94
2018-09-02T17:06:20.291Z,24.82
2018-09-02T17:08:46.256Z,24.94
2018-09-02T17:11:12.192Z,24.81
2018-09-02T17:13:38.320Z,24.77
2018-09-02T17:16:04.419Z,24.50
2018-09-02T17:18:30.414Z,24.36
2018-09-02T17:20:56.415Z,24.34
2018-09-02T17:23:22.383Z,24.69
2018-09-02T17:25:48.548Z,24.61
2018-09-02T17:28:14.389Z,24.41
2018-09-02T17:30:41.438Z,24.75
2018-09-02T17:33:07.461Z,24.77
2018-09-02T17:35:34.125Z,24.73
2018-09-02T17:38:00.098Z,24.57
2018-09-02T17:40:26.078Z,24.54
2018-09-02T17:42:52.146Z,24.44
2018-09-02T17:45:18.122Z,24.54
2018-09-02T17:47:44.175Z,24.65
2018-09-02T17:50:10.157Z,24.66
2018-09-02T17:52:36.409Z,24.67
2018-09-02T17:55:02.840Z,24.63
2018-09-02T17:57:28.884Z,24.48
2018-09-02T17:59:55.142Z,24.21
2018-09-02T18:02:21.225Z,24.16
2018-09-02T18:04:47.437Z,24.36
2018-09-02T18:07:17.128Z,24.51
2018-09-02T18:09:44.227Z,24.31
2018-09-02T18:12:10.332Z,24.53
2018-09-02T18:14:36.338Z,24.56
2018-09-02T18:17:02.413Z,24.61
2018-09-02T18:19:28.476Z,24.19
2018-09-02T18:21:54.543Z,24.28
2018-09-02T18:24:21.174Z,24.20
2018-09-02T18:26:47.516Z,24.14
2018-09-02T18:29:13.591Z,24.06
2018-09-02T18:31:39.975Z,24.06
2018-09-02T18:34:07.286Z,23.83
2018-09-02T18:36:33.300Z,24.14
2018-09-02T18:38:59.359Z,23.93
2018-09-02T18:41:25.376Z,23.90
2018-09-02T18:43:51.378Z,24.01
2018-09-02T18:46:17.353Z,24.10
2018-09-02T18:48:43.334Z,24.05
2018-09-02T18:51:09.286Z,23.99
2018-09-02T18:53:35.282Z,24.14
2018-09-02T18:56:01.281Z,23.78
2018-09-02T18:58:27.243Z,24.01
2018-09-02T19:00:53.270Z,23.97
2018-09-02T19:03:19.272Z,23.98
2018-09-02T19:05:45.254Z,23.94
2018-09-02T19:08:11.243Z,23.86
2018-09-02T19:10:37.242Z,24.06
2018-09-02T19:13:03.201Z,24.05
2018-09-02T19:15:29.181Z,23.79
2018-09-02T19:17:55.277Z,24.12
2018-09-02T19:20:21.307Z,24.02
2018-09-02T19:22:47.349Z,24.03
2018-09-02T19:25:13.337Z,24.12
2018-09-02T19:27:39.304Z,24.02
2018-09-02T19:30:05.369Z,24.12
2018-09-02T19:32:31.483Z,24.01
2018-09-02T19:34:57.464Z,24.01
2018-09-02T19:37:23.450Z,23.92
2018-09-02T19:39:49.622Z,23.56
2018-09-02T19:42:15.850Z,23.71
2018-09-02T19:44:41.934Z,23.95
2018-09-02T19:47:07.957Z,24.13
2018-09-02T19:49:33.959Z,23.94
2018-09-02T19:51:59.970Z,23.93
2018-09-02T19:54:25.962Z,23.81
2018-09-02T19:56:51.947Z,23.96
2018-09-02T19:59:17.991Z,24.27
2018-09-02T20:01:43.981Z,24.27
2018-09-02T20:04:09.988Z,24.25
2018-09-02T20:06:35.974Z,24.16
2018-09-02T20:09:01.933Z,24.35
2018-09-02T20:11:27.898Z,24.38
2018-09-02T20:13:53.857Z,23.99
2018-09-02T20:16:19.901Z,24.12
2018-09-02T20:18:45.863Z,23.96
2018-09-02T20:21:11.847Z,23.99
2018-09-02T20:23:37.876Z,24.38
2018-09-02T20:26:03.872Z,24.42
2018-09-02T20:28:29.894Z,24.35
2018-09-02T20:30:55.913Z,24.24
2018-09-02T20:33:21.909Z,24.22
2018-09-02T20:35:47.908Z,24.05
2018-09-02T20:38:13.915Z,24.10
2018-09-02T20:40:40.016Z,24.09
2018-09-02T20:43:06.071Z,24.12
2018-09-02T20:45:32.070Z,23.77
2018-09-02T20:47:58.033Z,24.16
2018-09-02T20:50:23.989Z,24.17
2018-09-02T20:52:49.930Z,24.27
2018-09-02T20:55:15.901Z,24.29
2018-09-02T20:57:41.876Z,24.35
2018-09-02T21:00:07.898Z,24.23
2018-09-02T21:02:33.950Z,23.90
2018-09-02T21:04:59.887Z,24.24
2018-09-02T21:07:25.875Z,24.17
2018-09-02T21:09:51.872Z,24.24
2018-09-02T21:12:17.822Z,24.17
2018-09-02T21:14:43.845Z,23.99
2018-09-02T21:17:09.859Z,23.90
2018-09-02T21:19:35.825Z,24.23
2018-09-02T21:22:01.801Z,24.35
2018-09-02T21:24:27.764Z,24.11
2018-09-02T21:26:53.701Z,24.06
2018-09-02T21:29:19.658Z,24.14
2018-09-02T21:31:45.692Z,24.06
2018-09-02T21:34:11.643Z,24.09
2018-09-02T21:36:37.623Z,23.84
2018-09-02T21:39:03.552Z,23.91
2018-09-02T21:41:29.526Z,24.08
2018-09-02T21:43:55.478Z,24.18
2018-09-02T21:46:21.425Z,24.03
2018-09-02T21:48:47.371Z,23.83
2018-09-02T21:51:13.351Z,24.02
2018-09-02T21:53:39.317Z,23.89
2018-09-02T21:56:05.264Z,24.13
2018-09-02T21:58:31.228Z,23.79
2018-09-02T22:00:57.208Z,23.75
2018-09-02T22:03:23.176Z,23.90
2018-09-02T22:05:49.178Z,23.91
2018-09-02T22:08:15.141Z,23.72
2018-09-02T22:10:41.106Z,23.66
2018-09-02T22:13:07.052Z,23.75
2018-09-02T22:15:33.018Z,23.72
2018-09-02T22:17:59.004Z,23.74
2018-09-02T22:20:24.964Z,23.79
2018-09-02T22:22:50.948Z,23.64
2018-09-02T22:25:16.907Z,23.63
2018-09-02T22:27:42.863Z,23.64
2018-09-02T22:30:08.834Z,23.51
2018-09-02T22:32:34.802Z,23.58
2018-09-02T22:35:00.764Z,23.54
2018-09-02T22:37:26.737Z,23.71
2018-09-02T22:39:52.703Z,23.63
2018-09-02T22:42:18.632Z,23.89
2018-09-02T22:44:44.592Z,23.37
2018-09-02T22:47:10.548Z,23.53
2018-09-02T22:49:36.528Z,23.44
2018-09-02T22:52:02.446Z,23.33
2018-09-02T22:54:28.420Z,23.76
2018-09-02T22:56:54.435Z,23.97
2018-09-02T22:59:20.411Z,23.52
2018-09-02T23:01:46.414Z,23.51
2018-09-02T23:04:12.358Z,23.92
2018-09-02T23:06:38.332Z,23.81
2018-09-02T23:09:04.299Z,24.04
2018-09-02T23:11:30.261Z,23.58
2018-09-02T23:13:56.222Z,23.66
2018-09-02T23:16:22.320Z,23.63
2018-09-02T23:18:48.293Z,23.57
2018-09-02T23:21:14.259Z,23.82
2018-09-02T23:23:40.227Z,23.68
2018-09-02T23:26:06.177Z,23.54
2018-09-02T23:28:32.125Z,23.59
2018-09-02T23:30:58.064Z,23.81
2018-09-02T23:33:24.010Z,23.75
2018-09-02T23:35:49.956Z,23.76
2018-09-02T23:38:15.893Z,23.82
2018-09-02T23:40:41.857Z,23.48
2018-09-02T23:43:07.796Z,23.64
2018-09-02T23:45:33.748Z,23.64
2018-09-02T23:47:59.725Z,23.78
2018-09-02T23:50:25.701Z,23.66
2018-09-02T23:52:51.653Z,23.73
2018-09-02T23:55:17.580Z,23.99
2018-09-02T23:57:43.541Z,23.80
